<?xml version="1.0" encoding="UTF-8" standalone="no" ?>
<gpx xmlns="http://www.topografix.com/GPX/1/1" xmlns:xsi="http://www.w3.org/2001/XMLSchema-instance" xsi:schemaLocation="http://www.topografix.com/GPX/1/1 http://www.topografix.com/GPX/1/1/gpx.xsd" version="1.1" creator="VisuGPX - https://www.visugpx.com">
  <metadata>
    <name>Severac_MaraisChateaux_16-20km</name>
    <desc><![CDATA[gnerando idor:6533329_7079266_7112180]]></desc>
  </metadata>
  <trk>
    <name><![CDATA[Severac_MaraisChateauxStNervin_20.4km-6533329]]></name>
    <extensions>
      <line xmlns="http://www.topografix.com/GPX/gpx_style/0/2">
        <color>0000FF</color>
        <width>4</width>
      </line>
    </extensions>
    <trkseg>
      <trkpt lat="47.5482" lon="-2.07795">
        <ele>33</ele>
        <time>2023-11-13T19:19:46Z</time>
      </trkpt>
      <trkpt lat="47.54838" lon="-2.07798">
        <ele>33</ele>
        <time>2023-11-13T19:20:10Z</time>
      </trkpt>
      <trkpt lat="47.54842" lon="-2.07824">
        <ele>33</ele>
        <time>2023-11-13T19:20:34Z</time>
      </trkpt>
      <trkpt lat="47.54854" lon="-2.07845">
        <ele>33</ele>
        <time>2023-11-13T19:20:59Z</time>
      </trkpt>
      <trkpt lat="47.54857" lon="-2.07873">
        <ele>34</ele>
        <time>2023-11-13T19:21:25Z</time>
      </trkpt>
      <trkpt lat="47.54873" lon="-2.07923">
        <ele>35</ele>
        <time>2023-11-13T19:22:14Z</time>
      </trkpt>
      <trkpt lat="47.54858" lon="-2.07938">
        <ele>36</ele>
        <time>2023-11-13T19:22:39Z</time>
      </trkpt>
      <trkpt lat="47.54801" lon="-2.07938">
        <ele>37</ele>
        <time>2023-11-13T19:23:55Z</time>
      </trkpt>
      <trkpt lat="47.54765" lon="-2.07931">
        <ele>36</ele>
        <time>2023-11-13T19:24:43Z</time>
      </trkpt>
      <trkpt lat="47.54731" lon="-2.07955">
        <ele>36</ele>
        <time>2023-11-13T19:25:33Z</time>
      </trkpt>
      <trkpt lat="47.54717" lon="-2.07972">
        <ele>36</ele>
        <time>2023-11-13T19:25:57Z</time>
      </trkpt>
      <trkpt lat="47.54726" lon="-2.08026">
        <ele>36</ele>
        <time>2023-11-13T19:26:48Z</time>
      </trkpt>
      <trkpt lat="47.54718" lon="-2.0805">
        <ele>36</ele>
        <time>2023-11-13T19:27:12Z</time>
      </trkpt>
      <trkpt lat="47.54699" lon="-2.08055">
        <ele>36</ele>
        <time>2023-11-13T19:27:37Z</time>
      </trkpt>
      <trkpt lat="47.54687" lon="-2.08075">
        <ele>35</ele>
        <time>2023-11-13T19:28:01Z</time>
      </trkpt>
      <trkpt lat="47.54697" lon="-2.08128">
        <ele>36</ele>
        <time>2023-11-13T19:28:51Z</time>
      </trkpt>
      <trkpt lat="47.54706" lon="-2.08152">
        <ele>36</ele>
        <time>2023-11-13T19:29:16Z</time>
      </trkpt>
      <trkpt lat="47.54722" lon="-2.08167">
        <ele>37</ele>
        <time>2023-11-13T19:29:41Z</time>
      </trkpt>
      <trkpt lat="47.54735" lon="-2.08186">
        <ele>38</ele>
        <time>2023-11-13T19:30:05Z</time>
      </trkpt>
      <trkpt lat="47.54749" lon="-2.08433">
        <ele>39</ele>
        <time>2023-11-13T19:33:49Z</time>
      </trkpt>
      <trkpt lat="47.5476" lon="-2.08454">
        <ele>41</ele>
        <time>2023-11-13T19:34:13Z</time>
      </trkpt>
      <trkpt lat="47.54769" lon="-2.08478">
        <ele>42</ele>
        <time>2023-11-13T19:34:37Z</time>
      </trkpt>
      <trkpt lat="47.54806" lon="-2.0872">
        <ele>46</ele>
        <time>2023-11-13T19:38:21Z</time>
      </trkpt>
      <trkpt lat="47.54823" lon="-2.08732">
        <ele>46</ele>
        <time>2023-11-13T19:38:46Z</time>
      </trkpt>
      <trkpt lat="47.55023" lon="-2.0866">
        <ele>45</ele>
        <time>2023-11-13T19:43:21Z</time>
      </trkpt>
      <trkpt lat="47.55037" lon="-2.08678">
        <ele>45</ele>
        <time>2023-11-13T19:43:45Z</time>
      </trkpt>
      <trkpt lat="47.55099" lon="-2.09056">
        <ele>46</ele>
        <time>2023-11-13T19:49:36Z</time>
      </trkpt>
      <trkpt lat="47.55162" lon="-2.0946">
        <ele>31</ele>
        <time>2023-11-13T19:55:49Z</time>
      </trkpt>
      <trkpt lat="47.5518" lon="-2.09568">
        <ele>31</ele>
        <time>2023-11-13T19:57:29Z</time>
      </trkpt>
      <trkpt lat="47.55201" lon="-2.09675">
        <ele>33</ele>
        <time>2023-11-13T19:59:10Z</time>
      </trkpt>
      <trkpt lat="47.55228" lon="-2.09862">
        <ele>33</ele>
        <time>2023-11-13T20:02:02Z</time>
      </trkpt>
      <trkpt lat="47.55252" lon="-2.09997">
        <ele>34</ele>
        <time>2023-11-13T20:04:08Z</time>
      </trkpt>
      <trkpt lat="47.55255" lon="-2.10024">
        <ele>32</ele>
        <time>2023-11-13T20:04:32Z</time>
      </trkpt>
      <trkpt lat="47.55244" lon="-2.10047">
        <ele>31</ele>
        <time>2023-11-13T20:04:58Z</time>
      </trkpt>
      <trkpt lat="47.5523" lon="-2.10064">
        <ele>31</ele>
        <time>2023-11-13T20:05:22Z</time>
      </trkpt>
      <trkpt lat="47.55244" lon="-2.10081">
        <ele>28</ele>
        <time>2023-11-13T20:05:46Z</time>
      </trkpt>
      <trkpt lat="47.55281" lon="-2.10074">
        <ele>26</ele>
        <time>2023-11-13T20:06:36Z</time>
      </trkpt>
      <trkpt lat="47.55299" lon="-2.10075">
        <ele>25</ele>
        <time>2023-11-13T20:07:00Z</time>
      </trkpt>
      <trkpt lat="47.55317" lon="-2.10072">
        <ele>24</ele>
        <time>2023-11-13T20:07:24Z</time>
      </trkpt>
      <trkpt lat="47.55335" lon="-2.1008">
        <ele>22</ele>
        <time>2023-11-13T20:07:49Z</time>
      </trkpt>
      <trkpt lat="47.55344" lon="-2.10104">
        <ele>23</ele>
        <time>2023-11-13T20:08:14Z</time>
      </trkpt>
      <trkpt lat="47.55362" lon="-2.10103">
        <ele>22</ele>
        <time>2023-11-13T20:08:38Z</time>
      </trkpt>
      <trkpt lat="47.55401" lon="-2.10162">
        <ele>22</ele>
        <time>2023-11-13T20:09:52Z</time>
      </trkpt>
      <trkpt lat="47.55419" lon="-2.10173">
        <ele>21</ele>
        <time>2023-11-13T20:10:18Z</time>
      </trkpt>
      <trkpt lat="47.55437" lon="-2.10174">
        <ele>21</ele>
        <time>2023-11-13T20:10:42Z</time>
      </trkpt>
      <trkpt lat="47.55469" lon="-2.10146">
        <ele>20</ele>
        <time>2023-11-13T20:11:32Z</time>
      </trkpt>
      <trkpt lat="47.55488" lon="-2.10142">
        <ele>20</ele>
        <time>2023-11-13T20:11:58Z</time>
      </trkpt>
      <trkpt lat="47.55507" lon="-2.10095">
        <ele>22</ele>
        <time>2023-11-13T20:12:47Z</time>
      </trkpt>
      <trkpt lat="47.55522" lon="-2.10079">
        <ele>22</ele>
        <time>2023-11-13T20:13:12Z</time>
      </trkpt>
      <trkpt lat="47.5556" lon="-2.10076">
        <ele>20</ele>
        <time>2023-11-13T20:14:02Z</time>
      </trkpt>
      <trkpt lat="47.55577" lon="-2.1007">
        <ele>19</ele>
        <time>2023-11-13T20:14:26Z</time>
      </trkpt>
      <trkpt lat="47.55612" lon="-2.10049">
        <ele>17</ele>
        <time>2023-11-13T20:15:16Z</time>
      </trkpt>
      <trkpt lat="47.55627" lon="-2.10032">
        <ele>17</ele>
        <time>2023-11-13T20:15:41Z</time>
      </trkpt>
      <trkpt lat="47.55633" lon="-2.10007">
        <ele>17</ele>
        <time>2023-11-13T20:16:05Z</time>
      </trkpt>
      <trkpt lat="47.55636" lon="-2.09978">
        <ele>17</ele>
        <time>2023-11-13T20:16:32Z</time>
      </trkpt>
      <trkpt lat="47.5565" lon="-2.09961">
        <ele>16</ele>
        <time>2023-11-13T20:16:56Z</time>
      </trkpt>
      <trkpt lat="47.55658" lon="-2.09936">
        <ele>16</ele>
        <time>2023-11-13T20:17:21Z</time>
      </trkpt>
      <trkpt lat="47.5567" lon="-2.09914">
        <ele>15</ele>
        <time>2023-11-13T20:17:46Z</time>
      </trkpt>
      <trkpt lat="47.55777" lon="-2.0976">
        <ele>12</ele>
        <time>2023-11-13T20:21:05Z</time>
      </trkpt>
      <trkpt lat="47.55787" lon="-2.09737">
        <ele>12</ele>
        <time>2023-11-13T20:21:30Z</time>
      </trkpt>
      <trkpt lat="47.55783" lon="-2.0971">
        <ele>12</ele>
        <time>2023-11-13T20:21:55Z</time>
      </trkpt>
      <trkpt lat="47.55765" lon="-2.09633">
        <ele>14</ele>
        <time>2023-11-13T20:23:08Z</time>
      </trkpt>
      <trkpt lat="47.55694" lon="-2.09471">
        <ele>19</ele>
        <time>2023-11-13T20:26:02Z</time>
      </trkpt>
      <trkpt lat="47.55694" lon="-2.09444">
        <ele>20</ele>
        <time>2023-11-13T20:26:26Z</time>
      </trkpt>
      <trkpt lat="47.55713" lon="-2.09445">
        <ele>19</ele>
        <time>2023-11-13T20:26:52Z</time>
      </trkpt>
      <trkpt lat="47.55731" lon="-2.09437">
        <ele>19</ele>
        <time>2023-11-13T20:27:17Z</time>
      </trkpt>
      <trkpt lat="47.55746" lon="-2.09419">
        <ele>18</ele>
        <time>2023-11-13T20:27:43Z</time>
      </trkpt>
      <trkpt lat="47.55779" lon="-2.09395">
        <ele>18</ele>
        <time>2023-11-13T20:28:32Z</time>
      </trkpt>
      <trkpt lat="47.55799" lon="-2.09397">
        <ele>18</ele>
        <time>2023-11-13T20:28:58Z</time>
      </trkpt>
      <trkpt lat="47.55815" lon="-2.09408">
        <ele>18</ele>
        <time>2023-11-13T20:29:22Z</time>
      </trkpt>
      <trkpt lat="47.55854" lon="-2.09468">
        <ele>16</ele>
        <time>2023-11-13T20:30:37Z</time>
      </trkpt>
      <trkpt lat="47.55915" lon="-2.09529">
        <ele>15</ele>
        <time>2023-11-13T20:32:15Z</time>
      </trkpt>
      <trkpt lat="47.55931" lon="-2.09542">
        <ele>15</ele>
        <time>2023-11-13T20:32:39Z</time>
      </trkpt>
      <trkpt lat="47.55948" lon="-2.09552">
        <ele>16</ele>
        <time>2023-11-13T20:33:04Z</time>
      </trkpt>
      <trkpt lat="47.55984" lon="-2.09558">
        <ele>18</ele>
        <time>2023-11-13T20:33:52Z</time>
      </trkpt>
      <trkpt lat="47.56022" lon="-2.09561">
        <ele>19</ele>
        <time>2023-11-13T20:34:43Z</time>
      </trkpt>
      <trkpt lat="47.56033" lon="-2.09582">
        <ele>18</ele>
        <time>2023-11-13T20:35:07Z</time>
      </trkpt>
      <trkpt lat="47.56024" lon="-2.09748">
        <ele>10</ele>
        <time>2023-11-13T20:37:37Z</time>
      </trkpt>
      <trkpt lat="47.56027" lon="-2.09804">
        <ele>9</ele>
        <time>2023-11-13T20:38:27Z</time>
      </trkpt>
      <trkpt lat="47.56044" lon="-2.09813">
        <ele>9</ele>
        <time>2023-11-13T20:38:52Z</time>
      </trkpt>
      <trkpt lat="47.56211" lon="-2.09846">
        <ele>9</ele>
        <time>2023-11-13T20:42:36Z</time>
      </trkpt>
      <trkpt lat="47.56271" lon="-2.09854">
        <ele>9</ele>
        <time>2023-11-13T20:43:57Z</time>
      </trkpt>
      <trkpt lat="47.56307" lon="-2.09866">
        <ele>9</ele>
        <time>2023-11-13T20:44:46Z</time>
      </trkpt>
      <trkpt lat="47.56326" lon="-2.09866">
        <ele>9</ele>
        <time>2023-11-13T20:45:11Z</time>
      </trkpt>
      <trkpt lat="47.5634" lon="-2.09848">
        <ele>9</ele>
        <time>2023-11-13T20:45:36Z</time>
      </trkpt>
      <trkpt lat="47.56334" lon="-2.09793">
        <ele>10</ele>
        <time>2023-11-13T20:46:26Z</time>
      </trkpt>
      <trkpt lat="47.56328" lon="-2.09766">
        <ele>11</ele>
        <time>2023-11-13T20:46:52Z</time>
      </trkpt>
      <trkpt lat="47.5634" lon="-2.09745">
        <ele>11</ele>
        <time>2023-11-13T20:47:17Z</time>
      </trkpt>
      <trkpt lat="47.56392" lon="-2.09715">
        <ele>10</ele>
        <time>2023-11-13T20:48:31Z</time>
      </trkpt>
      <trkpt lat="47.56426" lon="-2.09691">
        <ele>9</ele>
        <time>2023-11-13T20:49:21Z</time>
      </trkpt>
      <trkpt lat="47.5655" lon="-2.09622">
        <ele>4</ele>
        <time>2023-11-13T20:52:18Z</time>
      </trkpt>
      <trkpt lat="47.56567" lon="-2.0961">
        <ele>3</ele>
        <time>2023-11-13T20:52:43Z</time>
      </trkpt>
      <trkpt lat="47.56582" lon="-2.09595">
        <ele>3</ele>
        <time>2023-11-13T20:53:07Z</time>
      </trkpt>
      <trkpt lat="47.56587" lon="-2.09568">
        <ele>3</ele>
        <time>2023-11-13T20:53:33Z</time>
      </trkpt>
      <trkpt lat="47.56591" lon="-2.09513">
        <ele>5</ele>
        <time>2023-11-13T20:54:22Z</time>
      </trkpt>
      <trkpt lat="47.56599" lon="-2.09458">
        <ele>5</ele>
        <time>2023-11-13T20:55:13Z</time>
      </trkpt>
      <trkpt lat="47.56606" lon="-2.09319">
        <ele>4</ele>
        <time>2023-11-13T20:57:19Z</time>
      </trkpt>
      <trkpt lat="47.56528" lon="-2.08865">
        <ele>7</ele>
        <time>2023-11-13T21:04:20Z</time>
      </trkpt>
      <trkpt lat="47.56539" lon="-2.08843">
        <ele>7</ele>
        <time>2023-11-13T21:04:45Z</time>
      </trkpt>
      <trkpt lat="47.56557" lon="-2.08832">
        <ele>6</ele>
        <time>2023-11-13T21:05:11Z</time>
      </trkpt>
      <trkpt lat="47.56601" lon="-2.08781">
        <ele>6</ele>
        <time>2023-11-13T21:06:26Z</time>
      </trkpt>
      <trkpt lat="47.56617" lon="-2.08767">
        <ele>6</ele>
        <time>2023-11-13T21:06:50Z</time>
      </trkpt>
      <trkpt lat="47.56635" lon="-2.08759">
        <ele>5</ele>
        <time>2023-11-13T21:07:15Z</time>
      </trkpt>
      <trkpt lat="47.56654" lon="-2.0876">
        <ele>5</ele>
        <time>2023-11-13T21:07:41Z</time>
      </trkpt>
      <trkpt lat="47.56708" lon="-2.08782">
        <ele>5</ele>
        <time>2023-11-13T21:08:56Z</time>
      </trkpt>
      <trkpt lat="47.56726" lon="-2.08786">
        <ele>5</ele>
        <time>2023-11-13T21:09:20Z</time>
      </trkpt>
      <trkpt lat="47.56744" lon="-2.08784">
        <ele>5</ele>
        <time>2023-11-13T21:09:44Z</time>
      </trkpt>
      <trkpt lat="47.56762" lon="-2.08777">
        <ele>5</ele>
        <time>2023-11-13T21:10:09Z</time>
      </trkpt>
      <trkpt lat="47.56779" lon="-2.08764">
        <ele>5</ele>
        <time>2023-11-13T21:10:34Z</time>
      </trkpt>
      <trkpt lat="47.5681" lon="-2.08732">
        <ele>6</ele>
        <time>2023-11-13T21:11:25Z</time>
      </trkpt>
      <trkpt lat="47.56846" lon="-2.08667">
        <ele>6</ele>
        <time>2023-11-13T21:12:40Z</time>
      </trkpt>
      <trkpt lat="47.56894" lon="-2.08626">
        <ele>5</ele>
        <time>2023-11-13T21:13:54Z</time>
      </trkpt>
      <trkpt lat="47.56937" lon="-2.08573">
        <ele>6</ele>
        <time>2023-11-13T21:15:09Z</time>
      </trkpt>
      <trkpt lat="47.56964" lon="-2.08534">
        <ele>6</ele>
        <time>2023-11-13T21:15:59Z</time>
      </trkpt>
      <trkpt lat="47.56982" lon="-2.08532">
        <ele>6</ele>
        <time>2023-11-13T21:16:23Z</time>
      </trkpt>
      <trkpt lat="47.57033" lon="-2.08563">
        <ele>6</ele>
        <time>2023-11-13T21:17:37Z</time>
      </trkpt>
      <trkpt lat="47.57107" lon="-2.08646">
        <ele>2</ele>
        <time>2023-11-13T21:19:41Z</time>
      </trkpt>
      <trkpt lat="47.57123" lon="-2.08661">
        <ele>2</ele>
        <time>2023-11-13T21:20:06Z</time>
      </trkpt>
      <trkpt lat="47.57156" lon="-2.08686">
        <ele>2</ele>
        <time>2023-11-13T21:20:56Z</time>
      </trkpt>
      <trkpt lat="47.57186" lon="-2.08719">
        <ele>2</ele>
        <time>2023-11-13T21:21:45Z</time>
      </trkpt>
      <trkpt lat="47.57217" lon="-2.08748">
        <ele>2</ele>
        <time>2023-11-13T21:22:34Z</time>
      </trkpt>
      <trkpt lat="47.57268" lon="-2.08781">
        <ele>1</ele>
        <time>2023-11-13T21:23:49Z</time>
      </trkpt>
      <trkpt lat="47.57284" lon="-2.08795">
        <ele>1</ele>
        <time>2023-11-13T21:24:13Z</time>
      </trkpt>
      <trkpt lat="47.57335" lon="-2.08825">
        <ele>1</ele>
        <time>2023-11-13T21:25:27Z</time>
      </trkpt>
      <trkpt lat="47.57346" lon="-2.08802">
        <ele>1</ele>
        <time>2023-11-13T21:25:52Z</time>
      </trkpt>
      <trkpt lat="47.57366" lon="-2.08726">
        <ele>1</ele>
        <time>2023-11-13T21:27:05Z</time>
      </trkpt>
      <trkpt lat="47.57389" lon="-2.0862">
        <ele>1</ele>
        <time>2023-11-13T21:28:46Z</time>
      </trkpt>
      <trkpt lat="47.57442" lon="-2.08415">
        <ele>2</ele>
        <time>2023-11-13T21:32:03Z</time>
      </trkpt>
      <trkpt lat="47.57522" lon="-2.08077">
        <ele>2</ele>
        <time>2023-11-13T21:37:26Z</time>
      </trkpt>
      <trkpt lat="47.57526" lon="-2.08051">
        <ele>2</ele>
        <time>2023-11-13T21:37:50Z</time>
      </trkpt>
      <trkpt lat="47.57511" lon="-2.08035">
        <ele>2</ele>
        <time>2023-11-13T21:38:14Z</time>
      </trkpt>
      <trkpt lat="47.57499" lon="-2.08014">
        <ele>2</ele>
        <time>2023-11-13T21:38:39Z</time>
      </trkpt>
      <trkpt lat="47.57492" lon="-2.07988">
        <ele>2</ele>
        <time>2023-11-13T21:39:04Z</time>
      </trkpt>
      <trkpt lat="47.57492" lon="-2.0796">
        <ele>2</ele>
        <time>2023-11-13T21:39:30Z</time>
      </trkpt>
      <trkpt lat="47.57494" lon="-2.07932">
        <ele>2</ele>
        <time>2023-11-13T21:39:55Z</time>
      </trkpt>
      <trkpt lat="47.57537" lon="-2.07779">
        <ele>1</ele>
        <time>2023-11-13T21:42:24Z</time>
      </trkpt>
      <trkpt lat="47.57539" lon="-2.07752">
        <ele>1</ele>
        <time>2023-11-13T21:42:49Z</time>
      </trkpt>
      <trkpt lat="47.57503" lon="-2.07743">
        <ele>1</ele>
        <time>2023-11-13T21:43:37Z</time>
      </trkpt>
      <trkpt lat="47.57484" lon="-2.07743">
        <ele>1</ele>
        <time>2023-11-13T21:44:03Z</time>
      </trkpt>
      <trkpt lat="47.57408" lon="-2.07731">
        <ele>1</ele>
        <time>2023-11-13T21:45:45Z</time>
      </trkpt>
      <trkpt lat="47.5739" lon="-2.07731">
        <ele>1</ele>
        <time>2023-11-13T21:46:09Z</time>
      </trkpt>
      <trkpt lat="47.57316" lon="-2.07719">
        <ele>2</ele>
        <time>2023-11-13T21:47:48Z</time>
      </trkpt>
      <trkpt lat="47.5726" lon="-2.07713">
        <ele>3</ele>
        <time>2023-11-13T21:49:03Z</time>
      </trkpt>
      <trkpt lat="47.57223" lon="-2.07706">
        <ele>3</ele>
        <time>2023-11-13T21:49:53Z</time>
      </trkpt>
      <trkpt lat="47.57207" lon="-2.07693">
        <ele>3</ele>
        <time>2023-11-13T21:50:17Z</time>
      </trkpt>
      <trkpt lat="47.57189" lon="-2.07692">
        <ele>3</ele>
        <time>2023-11-13T21:50:41Z</time>
      </trkpt>
      <trkpt lat="47.57128" lon="-2.07628">
        <ele>3</ele>
        <time>2023-11-13T21:52:21Z</time>
      </trkpt>
      <trkpt lat="47.57117" lon="-2.07606">
        <ele>3</ele>
        <time>2023-11-13T21:52:46Z</time>
      </trkpt>
      <trkpt lat="47.57101" lon="-2.07557">
        <ele>3</ele>
        <time>2023-11-13T21:53:35Z</time>
      </trkpt>
      <trkpt lat="47.57096" lon="-2.0753">
        <ele>4</ele>
        <time>2023-11-13T21:54:00Z</time>
      </trkpt>
      <trkpt lat="47.57097" lon="-2.07502">
        <ele>5</ele>
        <time>2023-11-13T21:54:25Z</time>
      </trkpt>
      <trkpt lat="47.57105" lon="-2.07476">
        <ele>4</ele>
        <time>2023-11-13T21:54:51Z</time>
      </trkpt>
      <trkpt lat="47.57106" lon="-2.0745">
        <ele>4</ele>
        <time>2023-11-13T21:55:14Z</time>
      </trkpt>
      <trkpt lat="47.57094" lon="-2.07284">
        <ele>4</ele>
        <time>2023-11-13T21:57:44Z</time>
      </trkpt>
      <trkpt lat="47.57094" lon="-2.07256">
        <ele>4</ele>
        <time>2023-11-13T21:58:10Z</time>
      </trkpt>
      <trkpt lat="47.57085" lon="-2.07204">
        <ele>4</ele>
        <time>2023-11-13T21:58:58Z</time>
      </trkpt>
      <trkpt lat="47.57087" lon="-2.07175">
        <ele>5</ele>
        <time>2023-11-13T21:59:24Z</time>
      </trkpt>
      <trkpt lat="47.57075" lon="-2.07066">
        <ele>6</ele>
        <time>2023-11-13T22:01:04Z</time>
      </trkpt>
      <trkpt lat="47.57076" lon="-2.07039">
        <ele>5</ele>
        <time>2023-11-13T22:01:28Z</time>
      </trkpt>
      <trkpt lat="47.57066" lon="-2.06987">
        <ele>6</ele>
        <time>2023-11-13T22:02:17Z</time>
      </trkpt>
      <trkpt lat="47.57053" lon="-2.06966">
        <ele>6</ele>
        <time>2023-11-13T22:02:42Z</time>
      </trkpt>
      <trkpt lat="47.57038" lon="-2.06949">
        <ele>6</ele>
        <time>2023-11-13T22:03:08Z</time>
      </trkpt>
      <trkpt lat="47.57022" lon="-2.06938">
        <ele>6</ele>
        <time>2023-11-13T22:03:31Z</time>
      </trkpt>
      <trkpt lat="47.57025" lon="-2.0691">
        <ele>6</ele>
        <time>2023-11-13T22:03:57Z</time>
      </trkpt>
      <trkpt lat="47.57035" lon="-2.06888">
        <ele>5</ele>
        <time>2023-11-13T22:04:21Z</time>
      </trkpt>
      <trkpt lat="47.57037" lon="-2.06861">
        <ele>4</ele>
        <time>2023-11-13T22:04:45Z</time>
      </trkpt>
      <trkpt lat="47.57066" lon="-2.06762">
        <ele>2</ele>
        <time>2023-11-13T22:06:22Z</time>
      </trkpt>
      <trkpt lat="47.57087" lon="-2.06658">
        <ele>3</ele>
        <time>2023-11-13T22:08:00Z</time>
      </trkpt>
      <trkpt lat="47.57096" lon="-2.06634">
        <ele>3</ele>
        <time>2023-11-13T22:08:25Z</time>
      </trkpt>
      <trkpt lat="47.57104" lon="-2.06579">
        <ele>3</ele>
        <time>2023-11-13T22:09:15Z</time>
      </trkpt>
      <trkpt lat="47.57111" lon="-2.06552">
        <ele>3</ele>
        <time>2023-11-13T22:09:41Z</time>
      </trkpt>
      <trkpt lat="47.57097" lon="-2.06386">
        <ele>3</ele>
        <time>2023-11-13T22:12:12Z</time>
      </trkpt>
      <trkpt lat="47.57083" lon="-2.06278">
        <ele>2</ele>
        <time>2023-11-13T22:13:51Z</time>
      </trkpt>
      <trkpt lat="47.57068" lon="-2.06111">
        <ele>3</ele>
        <time>2023-11-13T22:16:23Z</time>
      </trkpt>
      <trkpt lat="47.57054" lon="-2.06032">
        <ele>3</ele>
        <time>2023-11-13T22:17:36Z</time>
      </trkpt>
      <trkpt lat="47.57054" lon="-2.06004">
        <ele>5</ele>
        <time>2023-11-13T22:18:01Z</time>
      </trkpt>
      <trkpt lat="47.57043" lon="-2.05867">
        <ele>-1</ele>
        <time>2023-11-13T22:20:06Z</time>
      </trkpt>
      <trkpt lat="47.57045" lon="-2.05784">
        <ele>3</ele>
        <time>2023-11-13T22:21:20Z</time>
      </trkpt>
      <trkpt lat="47.57043" lon="-2.05672">
        <ele>3</ele>
        <time>2023-11-13T22:23:01Z</time>
      </trkpt>
      <trkpt lat="47.57048" lon="-2.05588">
        <ele>3</ele>
        <time>2023-11-13T22:24:17Z</time>
      </trkpt>
      <trkpt lat="47.57054" lon="-2.05533">
        <ele>3</ele>
        <time>2023-11-13T22:25:07Z</time>
      </trkpt>
      <trkpt lat="47.57055" lon="-2.05451">
        <ele>3</ele>
        <time>2023-11-13T22:26:21Z</time>
      </trkpt>
      <trkpt lat="47.57052" lon="-2.05397">
        <ele>1</ele>
        <time>2023-11-13T22:27:10Z</time>
      </trkpt>
      <trkpt lat="47.57021" lon="-2.0524">
        <ele>5</ele>
        <time>2023-11-13T22:29:37Z</time>
      </trkpt>
      <trkpt lat="47.57002" lon="-2.05161">
        <ele>4</ele>
        <time>2023-11-13T22:30:53Z</time>
      </trkpt>
      <trkpt lat="47.56994" lon="-2.05108">
        <ele>5</ele>
        <time>2023-11-13T22:31:42Z</time>
      </trkpt>
      <trkpt lat="47.56989" lon="-2.05053">
        <ele>6</ele>
        <time>2023-11-13T22:32:32Z</time>
      </trkpt>
      <trkpt lat="47.56989" lon="-2.05024">
        <ele>6</ele>
        <time>2023-11-13T22:32:58Z</time>
      </trkpt>
      <trkpt lat="47.56978" lon="-2.0497">
        <ele>9</ele>
        <time>2023-11-13T22:33:49Z</time>
      </trkpt>
      <trkpt lat="47.56976" lon="-2.04943">
        <ele>10</ele>
        <time>2023-11-13T22:34:13Z</time>
      </trkpt>
      <trkpt lat="47.56967" lon="-2.0492">
        <ele>12</ele>
        <time>2023-11-13T22:34:37Z</time>
      </trkpt>
      <trkpt lat="47.56963" lon="-2.04893">
        <ele>11</ele>
        <time>2023-11-13T22:35:02Z</time>
      </trkpt>
      <trkpt lat="47.56956" lon="-2.04867">
        <ele>10</ele>
        <time>2023-11-13T22:35:27Z</time>
      </trkpt>
      <trkpt lat="47.56934" lon="-2.04824">
        <ele>9</ele>
        <time>2023-11-13T22:36:16Z</time>
      </trkpt>
      <trkpt lat="47.56921" lon="-2.04803">
        <ele>8</ele>
        <time>2023-11-13T22:36:41Z</time>
      </trkpt>
      <trkpt lat="47.56877" lon="-2.04753">
        <ele>7</ele>
        <time>2023-11-13T22:37:55Z</time>
      </trkpt>
      <trkpt lat="47.56861" lon="-2.04738">
        <ele>7</ele>
        <time>2023-11-13T22:38:21Z</time>
      </trkpt>
      <trkpt lat="47.56844" lon="-2.04728">
        <ele>8</ele>
        <time>2023-11-13T22:38:45Z</time>
      </trkpt>
      <trkpt lat="47.56807" lon="-2.04729">
        <ele>8</ele>
        <time>2023-11-13T22:39:34Z</time>
      </trkpt>
      <trkpt lat="47.56752" lon="-2.04739">
        <ele>8</ele>
        <time>2023-11-13T22:40:48Z</time>
      </trkpt>
      <trkpt lat="47.56735" lon="-2.04745">
        <ele>8</ele>
        <time>2023-11-13T22:41:12Z</time>
      </trkpt>
      <trkpt lat="47.56717" lon="-2.04756">
        <ele>9</ele>
        <time>2023-11-13T22:41:38Z</time>
      </trkpt>
      <trkpt lat="47.56693" lon="-2.04798">
        <ele>10</ele>
        <time>2023-11-13T22:42:27Z</time>
      </trkpt>
      <trkpt lat="47.56677" lon="-2.04845">
        <ele>12</ele>
        <time>2023-11-13T22:43:15Z</time>
      </trkpt>
      <trkpt lat="47.56681" lon="-2.04873">
        <ele>13</ele>
        <time>2023-11-13T22:43:40Z</time>
      </trkpt>
      <trkpt lat="47.56695" lon="-2.04924">
        <ele>16</ele>
        <time>2023-11-13T22:44:30Z</time>
      </trkpt>
      <trkpt lat="47.56761" lon="-2.05267">
        <ele>19</ele>
        <time>2023-11-13T22:49:51Z</time>
      </trkpt>
      <trkpt lat="47.56758" lon="-2.05294">
        <ele>18</ele>
        <time>2023-11-13T22:50:16Z</time>
      </trkpt>
      <trkpt lat="47.56667" lon="-2.05392">
        <ele>12</ele>
        <time>2023-11-13T22:52:46Z</time>
      </trkpt>
      <trkpt lat="47.56654" lon="-2.05413">
        <ele>12</ele>
        <time>2023-11-13T22:53:11Z</time>
      </trkpt>
      <trkpt lat="47.56656" lon="-2.0547">
        <ele>12</ele>
        <time>2023-11-13T22:54:03Z</time>
      </trkpt>
      <trkpt lat="47.56666" lon="-2.05492">
        <ele>12</ele>
        <time>2023-11-13T22:54:27Z</time>
      </trkpt>
      <trkpt lat="47.56675" lon="-2.05495">
        <ele>12</ele>
        <time>2023-11-13T22:54:39Z</time>
      </trkpt>
      <trkpt lat="47.5666" lon="-2.05479">
        <ele>12</ele>
        <time>2023-11-13T22:55:04Z</time>
      </trkpt>
      <trkpt lat="47.56652" lon="-2.05425">
        <ele>12</ele>
        <time>2023-11-13T22:55:53Z</time>
      </trkpt>
      <trkpt lat="47.5666" lon="-2.054">
        <ele>12</ele>
        <time>2023-11-13T22:56:18Z</time>
      </trkpt>
      <trkpt lat="47.5675" lon="-2.05303">
        <ele>17</ele>
        <time>2023-11-13T22:58:47Z</time>
      </trkpt>
      <trkpt lat="47.56761" lon="-2.05281">
        <ele>18</ele>
        <time>2023-11-13T22:59:12Z</time>
      </trkpt>
      <trkpt lat="47.56759" lon="-2.05254">
        <ele>19</ele>
        <time>2023-11-13T22:59:36Z</time>
      </trkpt>
      <trkpt lat="47.56723" lon="-2.05068">
        <ele>22</ele>
        <time>2023-11-13T23:02:30Z</time>
      </trkpt>
      <trkpt lat="47.567" lon="-2.04935">
        <ele>17</ele>
        <time>2023-11-13T23:04:34Z</time>
      </trkpt>
      <trkpt lat="47.56693" lon="-2.0491">
        <ele>15</ele>
        <time>2023-11-13T23:04:58Z</time>
      </trkpt>
      <trkpt lat="47.56683" lon="-2.04887">
        <ele>14</ele>
        <time>2023-11-13T23:05:23Z</time>
      </trkpt>
      <trkpt lat="47.56647" lon="-2.04903">
        <ele>14</ele>
        <time>2023-11-13T23:06:13Z</time>
      </trkpt>
      <trkpt lat="47.56627" lon="-2.04905">
        <ele>14</ele>
        <time>2023-11-13T23:06:40Z</time>
      </trkpt>
      <trkpt lat="47.56598" lon="-2.04873">
        <ele>13</ele>
        <time>2023-11-13T23:07:28Z</time>
      </trkpt>
      <trkpt lat="47.56565" lon="-2.04847">
        <ele>14</ele>
        <time>2023-11-13T23:08:18Z</time>
      </trkpt>
      <trkpt lat="47.56548" lon="-2.0484">
        <ele>16</ele>
        <time>2023-11-13T23:08:41Z</time>
      </trkpt>
      <trkpt lat="47.56511" lon="-2.04844">
        <ele>19</ele>
        <time>2023-11-13T23:09:31Z</time>
      </trkpt>
      <trkpt lat="47.56493" lon="-2.0484">
        <ele>20</ele>
        <time>2023-11-13T23:09:55Z</time>
      </trkpt>
      <trkpt lat="47.56475" lon="-2.04833">
        <ele>21</ele>
        <time>2023-11-13T23:10:20Z</time>
      </trkpt>
      <trkpt lat="47.56441" lon="-2.04813">
        <ele>22</ele>
        <time>2023-11-13T23:11:09Z</time>
      </trkpt>
      <trkpt lat="47.56391" lon="-2.04777">
        <ele>21</ele>
        <time>2023-11-13T23:12:23Z</time>
      </trkpt>
      <trkpt lat="47.56358" lon="-2.04749">
        <ele>21</ele>
        <time>2023-11-13T23:13:14Z</time>
      </trkpt>
      <trkpt lat="47.56343" lon="-2.04731">
        <ele>20</ele>
        <time>2023-11-13T23:13:40Z</time>
      </trkpt>
      <trkpt lat="47.5628" lon="-2.04631">
        <ele>16</ele>
        <time>2023-11-13T23:15:43Z</time>
      </trkpt>
      <trkpt lat="47.56266" lon="-2.04613">
        <ele>16</ele>
        <time>2023-11-13T23:16:07Z</time>
      </trkpt>
      <trkpt lat="47.5625" lon="-2.04599">
        <ele>16</ele>
        <time>2023-11-13T23:16:32Z</time>
      </trkpt>
      <trkpt lat="47.56176" lon="-2.04567">
        <ele>11</ele>
        <time>2023-11-13T23:18:15Z</time>
      </trkpt>
      <trkpt lat="47.56162" lon="-2.04547">
        <ele>10</ele>
        <time>2023-11-13T23:18:41Z</time>
      </trkpt>
      <trkpt lat="47.56153" lon="-2.04523">
        <ele>9</ele>
        <time>2023-11-13T23:19:06Z</time>
      </trkpt>
      <trkpt lat="47.56145" lon="-2.04469">
        <ele>9</ele>
        <time>2023-11-13T23:19:56Z</time>
      </trkpt>
      <trkpt lat="47.56134" lon="-2.0433">
        <ele>13</ele>
        <time>2023-11-13T23:22:02Z</time>
      </trkpt>
      <trkpt lat="47.56141" lon="-2.04305">
        <ele>12</ele>
        <time>2023-11-13T23:22:26Z</time>
      </trkpt>
      <trkpt lat="47.56145" lon="-2.04277">
        <ele>11</ele>
        <time>2023-11-13T23:22:52Z</time>
      </trkpt>
      <trkpt lat="47.56139" lon="-2.04251">
        <ele>11</ele>
        <time>2023-11-13T23:23:16Z</time>
      </trkpt>
      <trkpt lat="47.5613" lon="-2.04228">
        <ele>11</ele>
        <time>2023-11-13T23:23:40Z</time>
      </trkpt>
      <trkpt lat="47.56117" lon="-2.04206">
        <ele>12</ele>
        <time>2023-11-13T23:24:07Z</time>
      </trkpt>
      <trkpt lat="47.56109" lon="-2.04182">
        <ele>11</ele>
        <time>2023-11-13T23:24:31Z</time>
      </trkpt>
      <trkpt lat="47.56109" lon="-2.04154">
        <ele>11</ele>
        <time>2023-11-13T23:24:56Z</time>
      </trkpt>
      <trkpt lat="47.56115" lon="-2.04071">
        <ele>11</ele>
        <time>2023-11-13T23:26:11Z</time>
      </trkpt>
      <trkpt lat="47.56111" lon="-2.03958">
        <ele>12</ele>
        <time>2023-11-13T23:27:53Z</time>
      </trkpt>
      <trkpt lat="47.56114" lon="-2.03903">
        <ele>12</ele>
        <time>2023-11-13T23:28:43Z</time>
      </trkpt>
      <trkpt lat="47.56123" lon="-2.03821">
        <ele>10</ele>
        <time>2023-11-13T23:29:58Z</time>
      </trkpt>
      <trkpt lat="47.56114" lon="-2.03714">
        <ele>13</ele>
        <time>2023-11-13T23:31:35Z</time>
      </trkpt>
      <trkpt lat="47.56116" lon="-2.03659">
        <ele>13</ele>
        <time>2023-11-13T23:32:24Z</time>
      </trkpt>
      <trkpt lat="47.5613" lon="-2.03551">
        <ele>14</ele>
        <time>2023-11-13T23:34:03Z</time>
      </trkpt>
      <trkpt lat="47.56128" lon="-2.03496">
        <ele>15</ele>
        <time>2023-11-13T23:34:53Z</time>
      </trkpt>
      <trkpt lat="47.56121" lon="-2.03471">
        <ele>16</ele>
        <time>2023-11-13T23:35:17Z</time>
      </trkpt>
      <trkpt lat="47.56063" lon="-2.03117">
        <ele>7</ele>
        <time>2023-11-13T23:40:45Z</time>
      </trkpt>
      <trkpt lat="47.56048" lon="-2.03101">
        <ele>7</ele>
        <time>2023-11-13T23:41:10Z</time>
      </trkpt>
      <trkpt lat="47.56029" lon="-2.03103">
        <ele>7</ele>
        <time>2023-11-13T23:41:35Z</time>
      </trkpt>
      <trkpt lat="47.55977" lon="-2.03131">
        <ele>8</ele>
        <time>2023-11-13T23:42:49Z</time>
      </trkpt>
      <trkpt lat="47.55959" lon="-2.03135">
        <ele>9</ele>
        <time>2023-11-13T23:43:14Z</time>
      </trkpt>
      <trkpt lat="47.55921" lon="-2.0313">
        <ele>9</ele>
        <time>2023-11-13T23:44:04Z</time>
      </trkpt>
      <trkpt lat="47.55866" lon="-2.0311">
        <ele>11</ele>
        <time>2023-11-13T23:45:20Z</time>
      </trkpt>
      <trkpt lat="47.55846" lon="-2.03106">
        <ele>12</ele>
        <time>2023-11-13T23:45:47Z</time>
      </trkpt>
      <trkpt lat="47.55828" lon="-2.03106">
        <ele>13</ele>
        <time>2023-11-13T23:46:11Z</time>
      </trkpt>
      <trkpt lat="47.55811" lon="-2.03115">
        <ele>15</ele>
        <time>2023-11-13T23:46:35Z</time>
      </trkpt>
      <trkpt lat="47.55806" lon="-2.03142">
        <ele>16</ele>
        <time>2023-11-13T23:47:00Z</time>
      </trkpt>
      <trkpt lat="47.55801" lon="-2.03198">
        <ele>18</ele>
        <time>2023-11-13T23:47:51Z</time>
      </trkpt>
      <trkpt lat="47.55791" lon="-2.03365">
        <ele>22</ele>
        <time>2023-11-13T23:50:22Z</time>
      </trkpt>
      <trkpt lat="47.55783" lon="-2.03445">
        <ele>25</ele>
        <time>2023-11-13T23:51:35Z</time>
      </trkpt>
      <trkpt lat="47.5578" lon="-2.03555">
        <ele>26</ele>
        <time>2023-11-13T23:53:14Z</time>
      </trkpt>
      <trkpt lat="47.5577" lon="-2.03579">
        <ele>26</ele>
        <time>2023-11-13T23:53:40Z</time>
      </trkpt>
      <trkpt lat="47.55711" lon="-2.04097">
        <ele>36</ele>
        <time>2023-11-14T00:01:33Z</time>
      </trkpt>
      <trkpt lat="47.55695" lon="-2.04203">
        <ele>37</ele>
        <time>2023-11-14T00:03:10Z</time>
      </trkpt>
      <trkpt lat="47.55695" lon="-2.04232">
        <ele>37</ele>
        <time>2023-11-14T00:03:37Z</time>
      </trkpt>
      <trkpt lat="47.55679" lon="-2.04247">
        <ele>38</ele>
        <time>2023-11-14T00:04:02Z</time>
      </trkpt>
      <trkpt lat="47.5566" lon="-2.04247">
        <ele>39</ele>
        <time>2023-11-14T00:04:27Z</time>
      </trkpt>
      <trkpt lat="47.55642" lon="-2.04252">
        <ele>40</ele>
        <time>2023-11-14T00:04:52Z</time>
      </trkpt>
      <trkpt lat="47.55587" lon="-2.0426">
        <ele>42</ele>
        <time>2023-11-14T00:06:05Z</time>
      </trkpt>
      <trkpt lat="47.55551" lon="-2.0427">
        <ele>41</ele>
        <time>2023-11-14T00:06:54Z</time>
      </trkpt>
      <trkpt lat="47.55513" lon="-2.04275">
        <ele>40</ele>
        <time>2023-11-14T00:07:45Z</time>
      </trkpt>
      <trkpt lat="47.55477" lon="-2.04283">
        <ele>39</ele>
        <time>2023-11-14T00:08:34Z</time>
      </trkpt>
      <trkpt lat="47.55459" lon="-2.04284">
        <ele>39</ele>
        <time>2023-11-14T00:08:58Z</time>
      </trkpt>
      <trkpt lat="47.55441" lon="-2.0429">
        <ele>38</ele>
        <time>2023-11-14T00:09:22Z</time>
      </trkpt>
      <trkpt lat="47.55424" lon="-2.04303">
        <ele>38</ele>
        <time>2023-11-14T00:09:48Z</time>
      </trkpt>
      <trkpt lat="47.55388" lon="-2.04294">
        <ele>38</ele>
        <time>2023-11-14T00:10:37Z</time>
      </trkpt>
      <trkpt lat="47.55374" lon="-2.0431">
        <ele>39</ele>
        <time>2023-11-14T00:11:00Z</time>
      </trkpt>
      <trkpt lat="47.55368" lon="-2.04337">
        <ele>40</ele>
        <time>2023-11-14T00:11:26Z</time>
      </trkpt>
      <trkpt lat="47.55356" lon="-2.04358">
        <ele>41</ele>
        <time>2023-11-14T00:11:51Z</time>
      </trkpt>
      <trkpt lat="47.55327" lon="-2.04393">
        <ele>43</ele>
        <time>2023-11-14T00:12:41Z</time>
      </trkpt>
      <trkpt lat="47.55291" lon="-2.04396">
        <ele>44</ele>
        <time>2023-11-14T00:13:29Z</time>
      </trkpt>
      <trkpt lat="47.55274" lon="-2.04407">
        <ele>45</ele>
        <time>2023-11-14T00:13:53Z</time>
      </trkpt>
      <trkpt lat="47.55243" lon="-2.04439">
        <ele>47</ele>
        <time>2023-11-14T00:14:44Z</time>
      </trkpt>
      <trkpt lat="47.55237" lon="-2.04465">
        <ele>47</ele>
        <time>2023-11-14T00:15:09Z</time>
      </trkpt>
      <trkpt lat="47.55242" lon="-2.04491">
        <ele>48</ele>
        <time>2023-11-14T00:15:33Z</time>
      </trkpt>
      <trkpt lat="47.55243" lon="-2.04518">
        <ele>48</ele>
        <time>2023-11-14T00:15:57Z</time>
      </trkpt>
      <trkpt lat="47.55236" lon="-2.04573">
        <ele>49</ele>
        <time>2023-11-14T00:16:48Z</time>
      </trkpt>
      <trkpt lat="47.55225" lon="-2.04626">
        <ele>51</ele>
        <time>2023-11-14T00:17:38Z</time>
      </trkpt>
      <trkpt lat="47.55217" lon="-2.04649">
        <ele>52</ele>
        <time>2023-11-14T00:18:01Z</time>
      </trkpt>
      <trkpt lat="47.55166" lon="-2.04763">
        <ele>53</ele>
        <time>2023-11-14T00:20:04Z</time>
      </trkpt>
      <trkpt lat="47.55159" lon="-2.04788">
        <ele>52</ele>
        <time>2023-11-14T00:20:29Z</time>
      </trkpt>
      <trkpt lat="47.55153" lon="-2.04898">
        <ele>50</ele>
        <time>2023-11-14T00:22:08Z</time>
      </trkpt>
      <trkpt lat="47.55156" lon="-2.0498">
        <ele>49</ele>
        <time>2023-11-14T00:23:22Z</time>
      </trkpt>
      <trkpt lat="47.55138" lon="-2.04985">
        <ele>49</ele>
        <time>2023-11-14T00:23:46Z</time>
      </trkpt>
      <trkpt lat="47.55082" lon="-2.04983">
        <ele>49</ele>
        <time>2023-11-14T00:25:01Z</time>
      </trkpt>
      <trkpt lat="47.54877" lon="-2.04986">
        <ele>45</ele>
        <time>2023-11-14T00:29:35Z</time>
      </trkpt>
      <trkpt lat="47.5487" lon="-2.05011">
        <ele>44</ele>
        <time>2023-11-14T00:29:59Z</time>
      </trkpt>
      <trkpt lat="47.54888" lon="-2.05203">
        <ele>41</ele>
        <time>2023-11-14T00:32:54Z</time>
      </trkpt>
      <trkpt lat="47.54911" lon="-2.05504">
        <ele>36</ele>
        <time>2023-11-14T00:37:26Z</time>
      </trkpt>
      <trkpt lat="47.54912" lon="-2.05531">
        <ele>36</ele>
        <time>2023-11-14T00:37:51Z</time>
      </trkpt>
      <trkpt lat="47.54904" lon="-2.05555">
        <ele>36</ele>
        <time>2023-11-14T00:38:15Z</time>
      </trkpt>
      <trkpt lat="47.54887" lon="-2.05564">
        <ele>36</ele>
        <time>2023-11-14T00:38:39Z</time>
      </trkpt>
      <trkpt lat="47.54833" lon="-2.05585">
        <ele>38</ele>
        <time>2023-11-14T00:39:54Z</time>
      </trkpt>
      <trkpt lat="47.54816" lon="-2.05596">
        <ele>39</ele>
        <time>2023-11-14T00:40:18Z</time>
      </trkpt>
      <trkpt lat="47.54777" lon="-2.05608">
        <ele>42</ele>
        <time>2023-11-14T00:41:11Z</time>
      </trkpt>
      <trkpt lat="47.54765" lon="-2.05629">
        <ele>43</ele>
        <time>2023-11-14T00:41:36Z</time>
      </trkpt>
      <trkpt lat="47.54747" lon="-2.05627">
        <ele>44</ele>
        <time>2023-11-14T00:42:00Z</time>
      </trkpt>
      <trkpt lat="47.54729" lon="-2.05621">
        <ele>45</ele>
        <time>2023-11-14T00:42:25Z</time>
      </trkpt>
      <trkpt lat="47.54705" lon="-2.0558">
        <ele>46</ele>
        <time>2023-11-14T00:43:14Z</time>
      </trkpt>
      <trkpt lat="47.54688" lon="-2.05567">
        <ele>47</ele>
        <time>2023-11-14T00:43:39Z</time>
      </trkpt>
      <trkpt lat="47.54669" lon="-2.05561">
        <ele>48</ele>
        <time>2023-11-14T00:44:05Z</time>
      </trkpt>
      <trkpt lat="47.5465" lon="-2.0556">
        <ele>48</ele>
        <time>2023-11-14T00:44:31Z</time>
      </trkpt>
      <trkpt lat="47.54614" lon="-2.05572">
        <ele>46</ele>
        <time>2023-11-14T00:45:20Z</time>
      </trkpt>
      <trkpt lat="47.54601" lon="-2.05553">
        <ele>46</ele>
        <time>2023-11-14T00:45:44Z</time>
      </trkpt>
      <trkpt lat="47.54536" lon="-2.05265">
        <ele>51</ele>
        <time>2023-11-14T00:50:18Z</time>
      </trkpt>
      <trkpt lat="47.54516" lon="-2.05218">
        <ele>53</ele>
        <time>2023-11-14T00:51:08Z</time>
      </trkpt>
      <trkpt lat="47.54487" lon="-2.05185">
        <ele>54</ele>
        <time>2023-11-14T00:51:57Z</time>
      </trkpt>
      <trkpt lat="47.54476" lon="-2.05162">
        <ele>54</ele>
        <time>2023-11-14T00:52:22Z</time>
      </trkpt>
      <trkpt lat="47.54458" lon="-2.05154">
        <ele>52</ele>
        <time>2023-11-14T00:52:47Z</time>
      </trkpt>
      <trkpt lat="47.54454" lon="-2.051">
        <ele>55</ele>
        <time>2023-11-14T00:53:36Z</time>
      </trkpt>
      <trkpt lat="47.54448" lon="-2.05073">
        <ele>56</ele>
        <time>2023-11-14T00:54:02Z</time>
      </trkpt>
      <trkpt lat="47.54448" lon="-2.05046">
        <ele>57</ele>
        <time>2023-11-14T00:54:26Z</time>
      </trkpt>
      <trkpt lat="47.54441" lon="-2.05005">
        <ele>59</ele>
        <time>2023-11-14T00:55:04Z</time>
      </trkpt>
      <trkpt lat="47.54442" lon="-2.04923">
        <ele>58</ele>
        <time>2023-11-14T00:56:18Z</time>
      </trkpt>
      <trkpt lat="47.54446" lon="-2.04897">
        <ele>57</ele>
        <time>2023-11-14T00:56:42Z</time>
      </trkpt>
      <trkpt lat="47.54442" lon="-2.04869">
        <ele>56</ele>
        <time>2023-11-14T00:57:08Z</time>
      </trkpt>
      <trkpt lat="47.54421" lon="-2.04792">
        <ele>53</ele>
        <time>2023-11-14T00:58:23Z</time>
      </trkpt>
      <trkpt lat="47.54418" lon="-2.04765">
        <ele>52</ele>
        <time>2023-11-14T00:58:47Z</time>
      </trkpt>
      <trkpt lat="47.5441" lon="-2.04739">
        <ele>51</ele>
        <time>2023-11-14T00:59:13Z</time>
      </trkpt>
      <trkpt lat="47.544" lon="-2.04686">
        <ele>48</ele>
        <time>2023-11-14T01:00:02Z</time>
      </trkpt>
      <trkpt lat="47.54398" lon="-2.04659">
        <ele>48</ele>
        <time>2023-11-14T01:00:27Z</time>
      </trkpt>
      <trkpt lat="47.54392" lon="-2.04633">
        <ele>47</ele>
        <time>2023-11-14T01:00:52Z</time>
      </trkpt>
      <trkpt lat="47.54374" lon="-2.04626">
        <ele>46</ele>
        <time>2023-11-14T01:01:17Z</time>
      </trkpt>
      <trkpt lat="47.54355" lon="-2.0463">
        <ele>45</ele>
        <time>2023-11-14T01:01:42Z</time>
      </trkpt>
      <trkpt lat="47.54301" lon="-2.04652">
        <ele>41</ele>
        <time>2023-11-14T01:02:57Z</time>
      </trkpt>
      <trkpt lat="47.54245" lon="-2.04668">
        <ele>38</ele>
        <time>2023-11-14T01:04:13Z</time>
      </trkpt>
      <trkpt lat="47.54227" lon="-2.04676">
        <ele>37</ele>
        <time>2023-11-14T01:04:38Z</time>
      </trkpt>
      <trkpt lat="47.54154" lon="-2.04699">
        <ele>34</ele>
        <time>2023-11-14T01:06:18Z</time>
      </trkpt>
      <trkpt lat="47.54144" lon="-2.04722">
        <ele>33</ele>
        <time>2023-11-14T01:06:42Z</time>
      </trkpt>
      <trkpt lat="47.54144" lon="-2.04749">
        <ele>33</ele>
        <time>2023-11-14T01:07:07Z</time>
      </trkpt>
      <trkpt lat="47.54152" lon="-2.04774">
        <ele>33</ele>
        <time>2023-11-14T01:07:32Z</time>
      </trkpt>
      <trkpt lat="47.54181" lon="-2.04934">
        <ele>32</ele>
        <time>2023-11-14T01:10:01Z</time>
      </trkpt>
      <trkpt lat="47.54231" lon="-2.05141">
        <ele>33</ele>
        <time>2023-11-14T01:13:19Z</time>
      </trkpt>
      <trkpt lat="47.54237" lon="-2.05168">
        <ele>34</ele>
        <time>2023-11-14T01:13:44Z</time>
      </trkpt>
      <trkpt lat="47.5424" lon="-2.05196">
        <ele>34</ele>
        <time>2023-11-14T01:14:10Z</time>
      </trkpt>
      <trkpt lat="47.54286" lon="-2.05376">
        <ele>30</ele>
        <time>2023-11-14T01:17:03Z</time>
      </trkpt>
      <trkpt lat="47.5431" lon="-2.0548">
        <ele>29</ele>
        <time>2023-11-14T01:18:42Z</time>
      </trkpt>
      <trkpt lat="47.54319" lon="-2.05535">
        <ele>29</ele>
        <time>2023-11-14T01:19:33Z</time>
      </trkpt>
      <trkpt lat="47.54334" lon="-2.05587">
        <ele>29</ele>
        <time>2023-11-14T01:20:24Z</time>
      </trkpt>
      <trkpt lat="47.54338" lon="-2.05615">
        <ele>29</ele>
        <time>2023-11-14T01:20:50Z</time>
      </trkpt>
      <trkpt lat="47.54354" lon="-2.05666">
        <ele>30</ele>
        <time>2023-11-14T01:21:41Z</time>
      </trkpt>
      <trkpt lat="47.54371" lon="-2.05744">
        <ele>29</ele>
        <time>2023-11-14T01:22:55Z</time>
      </trkpt>
      <trkpt lat="47.54405" lon="-2.05871">
        <ele>24</ele>
        <time>2023-11-14T01:24:58Z</time>
      </trkpt>
      <trkpt lat="47.54407" lon="-2.05898">
        <ele>23</ele>
        <time>2023-11-14T01:25:22Z</time>
      </trkpt>
      <trkpt lat="47.54447" lon="-2.06052">
        <ele>24</ele>
        <time>2023-11-14T01:27:51Z</time>
      </trkpt>
      <trkpt lat="47.54457" lon="-2.06076">
        <ele>24</ele>
        <time>2023-11-14T01:28:16Z</time>
      </trkpt>
      <trkpt lat="47.54498" lon="-2.0613">
        <ele>23</ele>
        <time>2023-11-14T01:29:29Z</time>
      </trkpt>
      <trkpt lat="47.54586" lon="-2.06231">
        <ele>26</ele>
        <time>2023-11-14T01:31:58Z</time>
      </trkpt>
      <trkpt lat="47.54633" lon="-2.06276">
        <ele>26</ele>
        <time>2023-11-14T01:33:13Z</time>
      </trkpt>
      <trkpt lat="47.54749" lon="-2.06369">
        <ele>24</ele>
        <time>2023-11-14T01:36:09Z</time>
      </trkpt>
      <trkpt lat="47.54766" lon="-2.0638">
        <ele>24</ele>
        <time>2023-11-14T01:36:33Z</time>
      </trkpt>
      <trkpt lat="47.5475" lon="-2.06429">
        <ele>22</ele>
        <time>2023-11-14T01:37:22Z</time>
      </trkpt>
      <trkpt lat="47.54735" lon="-2.06445">
        <ele>22</ele>
        <time>2023-11-14T01:37:47Z</time>
      </trkpt>
      <trkpt lat="47.5473" lon="-2.06471">
        <ele>21</ele>
        <time>2023-11-14T01:38:11Z</time>
      </trkpt>
      <trkpt lat="47.547" lon="-2.06504">
        <ele>21</ele>
        <time>2023-11-14T01:39:01Z</time>
      </trkpt>
      <trkpt lat="47.54694" lon="-2.06529">
        <ele>21</ele>
        <time>2023-11-14T01:39:25Z</time>
      </trkpt>
      <trkpt lat="47.54697" lon="-2.06556">
        <ele>20</ele>
        <time>2023-11-14T01:39:50Z</time>
      </trkpt>
      <trkpt lat="47.54714" lon="-2.06567">
        <ele>19</ele>
        <time>2023-11-14T01:40:15Z</time>
      </trkpt>
      <trkpt lat="47.54729" lon="-2.06585">
        <ele>18</ele>
        <time>2023-11-14T01:40:40Z</time>
      </trkpt>
      <trkpt lat="47.54754" lon="-2.06626">
        <ele>18</ele>
        <time>2023-11-14T01:41:30Z</time>
      </trkpt>
      <trkpt lat="47.54758" lon="-2.06654">
        <ele>19</ele>
        <time>2023-11-14T01:41:56Z</time>
      </trkpt>
      <trkpt lat="47.54767" lon="-2.06678">
        <ele>19</ele>
        <time>2023-11-14T01:42:21Z</time>
      </trkpt>
      <trkpt lat="47.54773" lon="-2.06703">
        <ele>19</ele>
        <time>2023-11-14T01:42:45Z</time>
      </trkpt>
      <trkpt lat="47.54784" lon="-2.06725">
        <ele>19</ele>
        <time>2023-11-14T01:43:09Z</time>
      </trkpt>
      <trkpt lat="47.54831" lon="-2.06784">
        <ele>18</ele>
        <time>2023-11-14T01:44:31Z</time>
      </trkpt>
      <trkpt lat="47.54843" lon="-2.06804">
        <ele>18</ele>
        <time>2023-11-14T01:44:55Z</time>
      </trkpt>
      <trkpt lat="47.54841" lon="-2.0683">
        <ele>18</ele>
        <time>2023-11-14T01:45:19Z</time>
      </trkpt>
      <trkpt lat="47.54833" lon="-2.06857">
        <ele>17</ele>
        <time>2023-11-14T01:45:46Z</time>
      </trkpt>
      <trkpt lat="47.54803" lon="-2.06925">
        <ele>16</ele>
        <time>2023-11-14T01:46:59Z</time>
      </trkpt>
      <trkpt lat="47.54796" lon="-2.06949">
        <ele>17</ele>
        <time>2023-11-14T01:47:22Z</time>
      </trkpt>
      <trkpt lat="47.54807" lon="-2.06971">
        <ele>17</ele>
        <time>2023-11-14T01:47:47Z</time>
      </trkpt>
      <trkpt lat="47.54837" lon="-2.07003">
        <ele>16</ele>
        <time>2023-11-14T01:48:36Z</time>
      </trkpt>
      <trkpt lat="47.54854" lon="-2.07017">
        <ele>16</ele>
        <time>2023-11-14T01:49:02Z</time>
      </trkpt>
      <trkpt lat="47.54884" lon="-2.07051">
        <ele>16</ele>
        <time>2023-11-14T01:49:53Z</time>
      </trkpt>
      <trkpt lat="47.549" lon="-2.07063">
        <ele>16</ele>
        <time>2023-11-14T01:50:17Z</time>
      </trkpt>
      <trkpt lat="47.54947" lon="-2.07109">
        <ele>16</ele>
        <time>2023-11-14T01:51:32Z</time>
      </trkpt>
      <trkpt lat="47.54976" lon="-2.07141">
        <ele>16</ele>
        <time>2023-11-14T01:52:20Z</time>
      </trkpt>
      <trkpt lat="47.5501" lon="-2.07167">
        <ele>16</ele>
        <time>2023-11-14T01:53:11Z</time>
      </trkpt>
      <trkpt lat="47.55025" lon="-2.07184">
        <ele>16</ele>
        <time>2023-11-14T01:53:36Z</time>
      </trkpt>
      <trkpt lat="47.55076" lon="-2.0722">
        <ele>16</ele>
        <time>2023-11-14T01:54:52Z</time>
      </trkpt>
      <trkpt lat="47.55094" lon="-2.07218">
        <ele>15</ele>
        <time>2023-11-14T01:55:16Z</time>
      </trkpt>
      <trkpt lat="47.55093" lon="-2.07246">
        <ele>16</ele>
        <time>2023-11-14T01:55:41Z</time>
      </trkpt>
      <trkpt lat="47.55083" lon="-2.07297">
        <ele>19</ele>
        <time>2023-11-14T01:56:29Z</time>
      </trkpt>
      <trkpt lat="47.55077" lon="-2.07352">
        <ele>20</ele>
        <time>2023-11-14T01:57:19Z</time>
      </trkpt>
      <trkpt lat="47.55077" lon="-2.07379">
        <ele>21</ele>
        <time>2023-11-14T01:57:43Z</time>
      </trkpt>
      <trkpt lat="47.55058" lon="-2.07513">
        <ele>22</ele>
        <time>2023-11-14T01:59:47Z</time>
      </trkpt>
      <trkpt lat="47.55034" lon="-2.07616">
        <ele>23</ele>
        <time>2023-11-14T02:01:25Z</time>
      </trkpt>
      <trkpt lat="47.5503" lon="-2.07643">
        <ele>24</ele>
        <time>2023-11-14T02:01:50Z</time>
      </trkpt>
      <trkpt lat="47.55021" lon="-2.07666">
        <ele>24</ele>
        <time>2023-11-14T02:02:14Z</time>
      </trkpt>
      <trkpt lat="47.55004" lon="-2.07676">
        <ele>25</ele>
        <time>2023-11-14T02:02:38Z</time>
      </trkpt>
      <trkpt lat="47.54986" lon="-2.07677">
        <ele>26</ele>
        <time>2023-11-14T02:03:02Z</time>
      </trkpt>
      <trkpt lat="47.54969" lon="-2.07688">
        <ele>26</ele>
        <time>2023-11-14T02:03:27Z</time>
      </trkpt>
      <trkpt lat="47.54897" lon="-2.07714">
        <ele>29</ele>
        <time>2023-11-14T02:05:06Z</time>
      </trkpt>
      <trkpt lat="47.54862" lon="-2.07734">
        <ele>31</ele>
        <time>2023-11-14T02:05:56Z</time>
      </trkpt>
      <trkpt lat="47.54848" lon="-2.07751">
        <ele>31</ele>
        <time>2023-11-14T02:06:20Z</time>
      </trkpt>
      <trkpt lat="47.54837" lon="-2.07773">
        <ele>32</ele>
        <time>2023-11-14T02:06:45Z</time>
      </trkpt>
    </trkseg>
  </trk>
  <trk>
    <name><![CDATA[Severac_MaraisChateaux_15.8km-7112180]]></name>
    <extensions>
      <line xmlns="http://www.topografix.com/GPX/gpx_style/0/2">
        <color>00FF00</color>
        <width>4</width>
      </line>
    </extensions>
    <trkseg>
      <trkpt lat="47.54771" lon="-2.07802">
        <ele>34</ele>
        <time>2023-11-13T19:19:32Z</time>
      </trkpt>
      <trkpt lat="47.54843" lon="-2.07759">
        <ele>32</ele>
        <time>2023-11-13T19:21:16Z</time>
      </trkpt>
      <trkpt lat="47.54864" lon="-2.07931">
        <ele>36</ele>
        <time>2023-11-13T19:23:53Z</time>
      </trkpt>
      <trkpt lat="47.54704" lon="-2.07965">
        <ele>36</ele>
        <time>2023-11-13T19:27:29Z</time>
      </trkpt>
      <trkpt lat="47.54722" lon="-2.08055">
        <ele>36</ele>
        <time>2023-11-13T19:28:53Z</time>
      </trkpt>
      <trkpt lat="47.54675" lon="-2.08081">
        <ele>34</ele>
        <time>2023-11-13T19:30:00Z</time>
      </trkpt>
      <trkpt lat="47.5473" lon="-2.08193">
        <ele>37</ele>
        <time>2023-11-13T19:32:05Z</time>
      </trkpt>
      <trkpt lat="47.54759" lon="-2.08437">
        <ele>40</ele>
        <time>2023-11-13T19:35:48Z</time>
      </trkpt>
      <trkpt lat="47.54809" lon="-2.08729">
        <ele>46</ele>
        <time>2023-11-13T19:40:19Z</time>
      </trkpt>
      <trkpt lat="47.55029" lon="-2.08665">
        <ele>45</ele>
        <time>2023-11-13T19:45:19Z</time>
      </trkpt>
      <trkpt lat="47.55255" lon="-2.09999">
        <ele>34</ele>
        <time>2023-11-13T20:05:57Z</time>
      </trkpt>
      <trkpt lat="47.55237" lon="-2.10072">
        <ele>29</ele>
        <time>2023-11-13T20:07:07Z</time>
      </trkpt>
      <trkpt lat="47.5535" lon="-2.10081">
        <ele>22</ele>
        <time>2023-11-13T20:09:38Z</time>
      </trkpt>
      <trkpt lat="47.55399" lon="-2.10175">
        <ele>22</ele>
        <time>2023-11-13T20:11:25Z</time>
      </trkpt>
      <trkpt lat="47.55492" lon="-2.10141">
        <ele>20</ele>
        <time>2023-11-13T20:13:33Z</time>
      </trkpt>
      <trkpt lat="47.55533" lon="-2.10077">
        <ele>21</ele>
        <time>2023-11-13T20:14:53Z</time>
      </trkpt>
      <trkpt lat="47.55628" lon="-2.10038">
        <ele>17</ele>
        <time>2023-11-13T20:17:04Z</time>
      </trkpt>
      <trkpt lat="47.55649" lon="-2.09948">
        <ele>16</ele>
        <time>2023-11-13T20:18:30Z</time>
      </trkpt>
      <trkpt lat="47.55788" lon="-2.09742">
        <ele>12</ele>
        <time>2023-11-13T20:22:52Z</time>
      </trkpt>
      <trkpt lat="47.5568" lon="-2.09446">
        <ele>20</ele>
        <time>2023-11-13T20:27:55Z</time>
      </trkpt>
      <trkpt lat="47.55721" lon="-2.09446">
        <ele>19</ele>
        <time>2023-11-13T20:28:50Z</time>
      </trkpt>
      <trkpt lat="47.55782" lon="-2.09394">
        <ele>18</ele>
        <time>2023-11-13T20:30:24Z</time>
      </trkpt>
      <trkpt lat="47.55869" lon="-2.09489">
        <ele>16</ele>
        <time>2023-11-13T20:32:48Z</time>
      </trkpt>
      <trkpt lat="47.5595" lon="-2.09553">
        <ele>16</ele>
        <time>2023-11-13T20:34:51Z</time>
      </trkpt>
      <trkpt lat="47.56025" lon="-2.09579">
        <ele>18</ele>
        <time>2023-11-13T20:36:34Z</time>
      </trkpt>
      <trkpt lat="47.56028" lon="-2.09802">
        <ele>9</ele>
        <time>2023-11-13T20:39:54Z</time>
      </trkpt>
      <trkpt lat="47.56332" lon="-2.09854">
        <ele>9</ele>
        <time>2023-11-13T20:46:43Z</time>
      </trkpt>
      <trkpt lat="47.56329" lon="-2.09746">
        <ele>11</ele>
        <time>2023-11-13T20:48:20Z</time>
      </trkpt>
      <trkpt lat="47.56572" lon="-2.09596">
        <ele>3</ele>
        <time>2023-11-13T20:54:11Z</time>
      </trkpt>
      <trkpt lat="47.5674" lon="-2.09798">
        <ele>3</ele>
        <time>2023-11-13T20:59:00Z</time>
      </trkpt>
      <trkpt lat="47.56969" lon="-2.09394">
        <ele>2</ele>
        <time>2023-11-13T21:06:55Z</time>
      </trkpt>
      <trkpt lat="47.57041" lon="-2.09467">
        <ele>2</ele>
        <time>2023-11-13T21:08:52Z</time>
      </trkpt>
      <trkpt lat="47.57328" lon="-2.08832">
        <ele>1</ele>
        <time>2023-11-13T21:20:20Z</time>
      </trkpt>
      <trkpt lat="47.57528" lon="-2.0806">
        <ele>2</ele>
        <time>2023-11-13T21:32:44Z</time>
      </trkpt>
      <trkpt lat="47.57487" lon="-2.07952">
        <ele>2</ele>
        <time>2023-11-13T21:34:36Z</time>
      </trkpt>
      <trkpt lat="47.57539" lon="-2.07755">
        <ele>1</ele>
        <time>2023-11-13T21:37:46Z</time>
      </trkpt>
      <trkpt lat="47.57235" lon="-2.07716">
        <ele>3</ele>
        <time>2023-11-13T21:44:33Z</time>
      </trkpt>
      <trkpt lat="47.57154" lon="-2.07652">
        <ele>3</ele>
        <time>2023-11-13T21:46:36Z</time>
      </trkpt>
      <trkpt lat="47.57096" lon="-2.07523">
        <ele>4</ele>
        <time>2023-11-13T21:48:55Z</time>
      </trkpt>
      <trkpt lat="47.57073" lon="-2.07004">
        <ele>5</ele>
        <time>2023-11-13T21:56:44Z</time>
      </trkpt>
      <trkpt lat="47.57007" lon="-2.06931">
        <ele>6</ele>
        <time>2023-11-13T21:58:34Z</time>
      </trkpt>
      <trkpt lat="47.57117" lon="-2.06566">
        <ele>3</ele>
        <time>2023-11-13T22:04:34Z</time>
      </trkpt>
      <trkpt lat="47.57039" lon="-2.05867">
        <ele>-1</ele>
        <time>2023-11-13T22:15:11Z</time>
      </trkpt>
      <trkpt lat="47.57053" lon="-2.05399">
        <ele>1</ele>
        <time>2023-11-13T22:22:13Z</time>
      </trkpt>
      <trkpt lat="47.56952" lon="-2.04863">
        <ele>10</ele>
        <time>2023-11-13T22:30:34Z</time>
      </trkpt>
      <trkpt lat="47.56856" lon="-2.04725">
        <ele>7</ele>
        <time>2023-11-13T22:33:33Z</time>
      </trkpt>
      <trkpt lat="47.56729" lon="-2.04747">
        <ele>8</ele>
        <time>2023-11-13T22:36:23Z</time>
      </trkpt>
      <trkpt lat="47.56671" lon="-2.04828">
        <ele>11</ele>
        <time>2023-11-13T22:38:10Z</time>
      </trkpt>
      <trkpt lat="47.56697" lon="-2.04923">
        <ele>16</ele>
        <time>2023-11-13T22:39:42Z</time>
      </trkpt>
      <trkpt lat="47.56752" lon="-2.05292">
        <ele>18</ele>
        <time>2023-11-13T22:45:22Z</time>
      </trkpt>
      <trkpt lat="47.56653" lon="-2.05416">
        <ele>12</ele>
        <time>2023-11-13T22:48:15Z</time>
      </trkpt>
      <trkpt lat="47.56694" lon="-2.05923">
        <ele>16</ele>
        <time>2023-11-13T22:55:55Z</time>
      </trkpt>
      <trkpt lat="47.56448" lon="-2.05991">
        <ele>35</ele>
        <time>2023-11-13T23:01:29Z</time>
      </trkpt>
      <trkpt lat="47.56323" lon="-2.06026">
        <ele>38</ele>
        <time>2023-11-13T23:04:19Z</time>
      </trkpt>
      <trkpt lat="47.5637" lon="-2.06292">
        <ele>35</ele>
        <time>2023-11-13T23:08:26Z</time>
      </trkpt>
      <trkpt lat="47.56506" lon="-2.06395">
        <ele>32</ele>
        <time>2023-11-13T23:11:50Z</time>
      </trkpt>
      <trkpt lat="47.5663" lon="-2.06429">
        <ele>27</ele>
        <time>2023-11-13T23:14:38Z</time>
      </trkpt>
      <trkpt lat="47.56648" lon="-2.06528">
        <ele>27</ele>
        <time>2023-11-13T23:16:11Z</time>
      </trkpt>
      <trkpt lat="47.56596" lon="-2.06755">
        <ele>25</ele>
        <time>2023-11-13T23:19:47Z</time>
      </trkpt>
      <trkpt lat="47.56488" lon="-2.06729">
        <ele>22</ele>
        <time>2023-11-13T23:22:13Z</time>
      </trkpt>
      <trkpt lat="47.56028" lon="-2.06729">
        <ele>24</ele>
        <time>2023-11-13T23:32:26Z</time>
      </trkpt>
      <trkpt lat="47.55944" lon="-2.06669">
        <ele>28</ele>
        <time>2023-11-13T23:34:31Z</time>
      </trkpt>
      <trkpt lat="47.55822" lon="-2.06674">
        <ele>35</ele>
        <time>2023-11-13T23:37:14Z</time>
      </trkpt>
      <trkpt lat="47.55796" lon="-2.06789">
        <ele>32</ele>
        <time>2023-11-13T23:39:03Z</time>
      </trkpt>
      <trkpt lat="47.55727" lon="-2.06807">
        <ele>32</ele>
        <time>2023-11-13T23:40:36Z</time>
      </trkpt>
      <trkpt lat="47.55666" lon="-2.06789">
        <ele>32</ele>
        <time>2023-11-13T23:41:59Z</time>
      </trkpt>
      <trkpt lat="47.5568" lon="-2.06639">
        <ele>33</ele>
        <time>2023-11-13T23:44:16Z</time>
      </trkpt>
      <trkpt lat="47.5553" lon="-2.06566">
        <ele>21</ele>
        <time>2023-11-13T23:47:47Z</time>
      </trkpt>
      <trkpt lat="47.55229" lon="-2.06506">
        <ele>23</ele>
        <time>2023-11-13T23:54:32Z</time>
      </trkpt>
      <trkpt lat="47.55191" lon="-2.06472">
        <ele>24</ele>
        <time>2023-11-13T23:55:31Z</time>
      </trkpt>
      <trkpt lat="47.54759" lon="-2.0639">
        <ele>23</ele>
        <time>2023-11-14T00:05:12Z</time>
      </trkpt>
      <trkpt lat="47.5469" lon="-2.06536">
        <ele>21</ele>
        <time>2023-11-14T00:07:53Z</time>
      </trkpt>
      <trkpt lat="47.54762" lon="-2.06648">
        <ele>18</ele>
        <time>2023-11-14T00:10:12Z</time>
      </trkpt>
      <trkpt lat="47.54785" lon="-2.06734">
        <ele>19</ele>
        <time>2023-11-14T00:11:35Z</time>
      </trkpt>
      <trkpt lat="47.54838" lon="-2.06811">
        <ele>18</ele>
        <time>2023-11-14T00:13:14Z</time>
      </trkpt>
      <trkpt lat="47.54794" lon="-2.06965">
        <ele>17</ele>
        <time>2023-11-14T00:15:45Z</time>
      </trkpt>
      <trkpt lat="47.55092" lon="-2.07231">
        <ele>16</ele>
        <time>2023-11-14T00:23:29Z</time>
      </trkpt>
      <trkpt lat="47.55011" lon="-2.07652">
        <ele>24</ele>
        <time>2023-11-14T00:30:04Z</time>
      </trkpt>
      <trkpt lat="47.54797" lon="-2.07764">
        <ele>33</ele>
        <time>2023-11-14T00:35:07Z</time>
      </trkpt>
    </trkseg>
  </trk>
  <trk>
    <name><![CDATA[Sévérac_MaraisChateau_20.9km-7079266]]></name>
    <extensions>
      <line xmlns="http://www.topografix.com/GPX/gpx_style/0/2">
        <color>FF0000</color>
        <width>4</width>
      </line>
    </extensions>
    <trkseg>
      <trkpt lat="47.54739" lon="-2.07819">
        <ele>36</ele>
        <time>2023-11-13T19:19:23Z</time>
      </trkpt>
      <trkpt lat="47.54764" lon="-2.07935">
        <ele>36</ele>
        <time>2023-11-13T19:21:13Z</time>
      </trkpt>
      <trkpt lat="47.54709" lon="-2.07972">
        <ele>36</ele>
        <time>2023-11-13T19:22:33Z</time>
      </trkpt>
      <trkpt lat="47.54749" lon="-2.0844">
        <ele>40</ele>
        <time>2023-11-13T19:29:38Z</time>
      </trkpt>
      <trkpt lat="47.54774" lon="-2.08476">
        <ele>42</ele>
        <time>2023-11-13T19:30:25Z</time>
      </trkpt>
      <trkpt lat="47.54806" lon="-2.08725">
        <ele>46</ele>
        <time>2023-11-13T19:34:13Z</time>
      </trkpt>
      <trkpt lat="47.55032" lon="-2.08656">
        <ele>45</ele>
        <time>2023-11-13T19:39:21Z</time>
      </trkpt>
      <trkpt lat="47.55255" lon="-2.10019">
        <ele>32</ele>
        <time>2023-11-13T20:00:24Z</time>
      </trkpt>
      <trkpt lat="47.55223" lon="-2.10077">
        <ele>30</ele>
        <time>2023-11-13T20:01:32Z</time>
      </trkpt>
      <trkpt lat="47.55158" lon="-2.10207">
        <ele>25</ele>
        <time>2023-11-13T20:03:57Z</time>
      </trkpt>
      <trkpt lat="47.55017" lon="-2.10298">
        <ele>21</ele>
        <time>2023-11-13T20:07:23Z</time>
      </trkpt>
      <trkpt lat="47.54939" lon="-2.10446">
        <ele>24</ele>
        <time>2023-11-13T20:10:12Z</time>
      </trkpt>
      <trkpt lat="47.54624" lon="-2.10397">
        <ele>29</ele>
        <time>2023-11-13T20:17:14Z</time>
      </trkpt>
      <trkpt lat="47.54623" lon="-2.10472">
        <ele>26</ele>
        <time>2023-11-13T20:18:22Z</time>
      </trkpt>
      <trkpt lat="47.54632" lon="-2.10538">
        <ele>26</ele>
        <time>2023-11-13T20:19:23Z</time>
      </trkpt>
      <trkpt lat="47.54693" lon="-2.10551">
        <ele>27</ele>
        <time>2023-11-13T20:20:45Z</time>
      </trkpt>
      <trkpt lat="47.54927" lon="-2.11448">
        <ele>42</ele>
        <time>2023-11-13T20:35:11Z</time>
      </trkpt>
      <trkpt lat="47.55182" lon="-2.12516">
        <ele>49</ele>
        <time>2023-11-13T20:52:11Z</time>
      </trkpt>
      <trkpt lat="47.55483" lon="-2.12413">
        <ele>50</ele>
        <time>2023-11-13T20:59:04Z</time>
      </trkpt>
      <trkpt lat="47.55124" lon="-2.11366">
        <ele>47</ele>
        <time>2023-11-13T21:16:41Z</time>
      </trkpt>
      <trkpt lat="47.55263" lon="-2.11465">
        <ele>52</ele>
        <time>2023-11-13T21:20:07Z</time>
      </trkpt>
      <trkpt lat="47.55399" lon="-2.11431">
        <ele>52</ele>
        <time>2023-11-13T21:23:11Z</time>
      </trkpt>
      <trkpt lat="47.55573" lon="-2.11474">
        <ele>39</ele>
        <time>2023-11-13T21:27:07Z</time>
      </trkpt>
      <trkpt lat="47.55808" lon="-2.11525">
        <ele>28</ele>
        <time>2023-11-13T21:32:23Z</time>
      </trkpt>
      <trkpt lat="47.55877" lon="-2.10577">
        <ele>12</ele>
        <time>2023-11-13T21:46:42Z</time>
      </trkpt>
      <trkpt lat="47.55741" lon="-2.10469">
        <ele>12</ele>
        <time>2023-11-13T21:50:08Z</time>
      </trkpt>
      <trkpt lat="47.55563" lon="-2.10223">
        <ele>16</ele>
        <time>2023-11-13T21:55:33Z</time>
      </trkpt>
      <trkpt lat="47.5556" lon="-2.10128">
        <ele>17</ele>
        <time>2023-11-13T21:56:59Z</time>
      </trkpt>
      <trkpt lat="47.55782" lon="-2.09746">
        <ele>12</ele>
        <time>2023-11-13T22:04:33Z</time>
      </trkpt>
      <trkpt lat="47.55683" lon="-2.09442">
        <ele>20</ele>
        <time>2023-11-13T22:09:37Z</time>
      </trkpt>
      <trkpt lat="47.55738" lon="-2.09429">
        <ele>19</ele>
        <time>2023-11-13T22:10:51Z</time>
      </trkpt>
      <trkpt lat="47.55793" lon="-2.09397">
        <ele>18</ele>
        <time>2023-11-13T22:12:10Z</time>
      </trkpt>
      <trkpt lat="47.55935" lon="-2.09551">
        <ele>15</ele>
        <time>2023-11-13T22:16:05Z</time>
      </trkpt>
      <trkpt lat="47.56041" lon="-2.0956">
        <ele>19</ele>
        <time>2023-11-13T22:18:26Z</time>
      </trkpt>
      <trkpt lat="47.56034" lon="-2.09813">
        <ele>9</ele>
        <time>2023-11-13T22:22:14Z</time>
      </trkpt>
      <trkpt lat="47.56336" lon="-2.09854">
        <ele>9</ele>
        <time>2023-11-13T22:28:59Z</time>
      </trkpt>
      <trkpt lat="47.56326" lon="-2.09759">
        <ele>11</ele>
        <time>2023-11-13T22:30:25Z</time>
      </trkpt>
      <trkpt lat="47.56574" lon="-2.09598">
        <ele>3</ele>
        <time>2023-11-13T22:36:27Z</time>
      </trkpt>
      <trkpt lat="47.5673" lon="-2.09798">
        <ele>3</ele>
        <time>2023-11-13T22:41:02Z</time>
      </trkpt>
      <trkpt lat="47.56969" lon="-2.0939">
        <ele>2</ele>
        <time>2023-11-13T22:49:09Z</time>
      </trkpt>
      <trkpt lat="47.57034" lon="-2.09472">
        <ele>2</ele>
        <time>2023-11-13T22:51:02Z</time>
      </trkpt>
      <trkpt lat="47.57334" lon="-2.08836">
        <ele>1</ele>
        <time>2023-11-13T23:02:41Z</time>
      </trkpt>
      <trkpt lat="47.57524" lon="-2.08051">
        <ele>2</ele>
        <time>2023-11-13T23:15:12Z</time>
      </trkpt>
      <trkpt lat="47.5749" lon="-2.0798">
        <ele>2</ele>
        <time>2023-11-13T23:16:30Z</time>
      </trkpt>
      <trkpt lat="47.57503" lon="-2.07882">
        <ele>2</ele>
        <time>2023-11-13T23:18:00Z</time>
      </trkpt>
      <trkpt lat="47.57539" lon="-2.07768">
        <ele>1</ele>
        <time>2023-11-13T23:19:54Z</time>
      </trkpt>
      <trkpt lat="47.57225" lon="-2.07716">
        <ele>3</ele>
        <time>2023-11-13T23:26:55Z</time>
      </trkpt>
      <trkpt lat="47.57098" lon="-2.0753">
        <ele>4</ele>
        <time>2023-11-13T23:30:53Z</time>
      </trkpt>
      <trkpt lat="47.57068" lon="-2.07004">
        <ele>6</ele>
        <time>2023-11-13T23:38:49Z</time>
      </trkpt>
      <trkpt lat="47.57014" lon="-2.06935">
        <ele>6</ele>
        <time>2023-11-13T23:40:24Z</time>
      </trkpt>
      <trkpt lat="47.57034" lon="-2.06854">
        <ele>4</ele>
        <time>2023-11-13T23:41:41Z</time>
      </trkpt>
      <trkpt lat="47.57123" lon="-2.0656">
        <ele>3</ele>
        <time>2023-11-13T23:46:32Z</time>
      </trkpt>
      <trkpt lat="47.57046" lon="-2.05862">
        <ele>-2</ele>
        <time>2023-11-13T23:57:08Z</time>
      </trkpt>
      <trkpt lat="47.57057" lon="-2.05446">
        <ele>3</ele>
        <time>2023-11-14T00:03:23Z</time>
      </trkpt>
      <trkpt lat="47.56992" lon="-2.05114">
        <ele>5</ele>
        <time>2023-11-14T00:08:34Z</time>
      </trkpt>
      <trkpt lat="47.56949" lon="-2.04863">
        <ele>11</ele>
        <time>2023-11-14T00:12:28Z</time>
      </trkpt>
      <trkpt lat="47.56846" lon="-2.04725">
        <ele>8</ele>
        <time>2023-11-14T00:15:33Z</time>
      </trkpt>
      <trkpt lat="47.56723" lon="-2.04745">
        <ele>8</ele>
        <time>2023-11-14T00:18:18Z</time>
      </trkpt>
      <trkpt lat="47.56675" lon="-2.04845">
        <ele>12</ele>
        <time>2023-11-14T00:20:09Z</time>
      </trkpt>
      <trkpt lat="47.56761" lon="-2.05279">
        <ele>18</ele>
        <time>2023-11-14T00:26:56Z</time>
      </trkpt>
      <trkpt lat="47.56648" lon="-2.05412">
        <ele>12</ele>
        <time>2023-11-14T00:30:08Z</time>
      </trkpt>
      <trkpt lat="47.56704" lon="-2.05935">
        <ele>15</ele>
        <time>2023-11-14T00:38:05Z</time>
      </trkpt>
      <trkpt lat="47.56439" lon="-2.06002">
        <ele>36</ele>
        <time>2023-11-14T00:44:04Z</time>
      </trkpt>
      <trkpt lat="47.5636" lon="-2.06049">
        <ele>38</ele>
        <time>2023-11-14T00:45:58Z</time>
      </trkpt>
      <trkpt lat="47.5631" lon="-2.06045">
        <ele>38</ele>
        <time>2023-11-14T00:47:04Z</time>
      </trkpt>
      <trkpt lat="47.5637" lon="-2.06315">
        <ele>35</ele>
        <time>2023-11-14T00:51:20Z</time>
      </trkpt>
      <trkpt lat="47.5647" lon="-2.06371">
        <ele>32</ele>
        <time>2023-11-14T00:53:43Z</time>
      </trkpt>
      <trkpt lat="47.56642" lon="-2.06453">
        <ele>27</ele>
        <time>2023-11-14T00:57:44Z</time>
      </trkpt>
      <trkpt lat="47.56635" lon="-2.06616">
        <ele>27</ele>
        <time>2023-11-14T01:00:11Z</time>
      </trkpt>
      <trkpt lat="47.56596" lon="-2.06762">
        <ele>24</ele>
        <time>2023-11-14T01:02:33Z</time>
      </trkpt>
      <trkpt lat="47.56483" lon="-2.06719">
        <ele>22</ele>
        <time>2023-11-14T01:05:08Z</time>
      </trkpt>
      <trkpt lat="47.56053" lon="-2.06731">
        <ele>25</ele>
        <time>2023-11-14T01:14:42Z</time>
      </trkpt>
      <trkpt lat="47.55956" lon="-2.06676">
        <ele>27</ele>
        <time>2023-11-14T01:17:01Z</time>
      </trkpt>
      <trkpt lat="47.55828" lon="-2.06689">
        <ele>34</ele>
        <time>2023-11-14T01:19:52Z</time>
      </trkpt>
      <trkpt lat="47.55775" lon="-2.06811">
        <ele>32</ele>
        <time>2023-11-14T01:22:03Z</time>
      </trkpt>
      <trkpt lat="47.55682" lon="-2.06772">
        <ele>33</ele>
        <time>2023-11-14T01:24:12Z</time>
      </trkpt>
      <trkpt lat="47.55682" lon="-2.06631">
        <ele>34</ele>
        <time>2023-11-14T01:26:19Z</time>
      </trkpt>
      <trkpt lat="47.55475" lon="-2.06566">
        <ele>18</ele>
        <time>2023-11-14T01:31:01Z</time>
      </trkpt>
      <trkpt lat="47.55229" lon="-2.06513">
        <ele>23</ele>
        <time>2023-11-14T01:36:33Z</time>
      </trkpt>
      <trkpt lat="47.55218" lon="-2.06485">
        <ele>24</ele>
        <time>2023-11-14T01:37:02Z</time>
      </trkpt>
      <trkpt lat="47.54791" lon="-2.06401">
        <ele>22</ele>
        <time>2023-11-14T01:46:37Z</time>
      </trkpt>
      <trkpt lat="47.54703" lon="-2.06541">
        <ele>20</ele>
        <time>2023-11-14T01:49:29Z</time>
      </trkpt>
      <trkpt lat="47.54745" lon="-2.06598">
        <ele>18</ele>
        <time>2023-11-14T01:50:45Z</time>
      </trkpt>
      <trkpt lat="47.54826" lon="-2.06772">
        <ele>18</ele>
        <time>2023-11-14T01:53:55Z</time>
      </trkpt>
      <trkpt lat="47.54924" lon="-2.06884">
        <ele>13</ele>
        <time>2023-11-14T01:56:41Z</time>
      </trkpt>
      <trkpt lat="47.54874" lon="-2.07036">
        <ele>15</ele>
        <time>2023-11-14T01:59:13Z</time>
      </trkpt>
      <trkpt lat="47.5503" lon="-2.07189">
        <ele>16</ele>
        <time>2023-11-14T02:03:23Z</time>
      </trkpt>
      <trkpt lat="47.55003" lon="-2.07234">
        <ele>18</ele>
        <time>2023-11-14T02:04:17Z</time>
      </trkpt>
      <trkpt lat="47.55045" lon="-2.07564">
        <ele>23</ele>
        <time>2023-11-14T02:09:19Z</time>
      </trkpt>
      <trkpt lat="47.54995" lon="-2.07669">
        <ele>25</ele>
        <time>2023-11-14T02:11:15Z</time>
      </trkpt>
      <trkpt lat="47.54785" lon="-2.07791">
        <ele>34</ele>
        <time>2023-11-14T02:16:16Z</time>
      </trkpt>
    </trkseg>
  </trk>
</gpx>